createdAt,value
2016-06-16T00:00:26.787Z,0
2016-06-16T00:01:26.822Z,0
2016-06-16T00:02:26.794Z,0
2016-06-16T00:03:26.844Z,0
2016-06-16T00:04:26.815Z,0
2016-06-16T00:05:26.802Z,0
2016-06-16T00:06:26.806Z,0
2016-06-16T00:07:26.872Z,0
2016-06-16T00:08:26.828Z,0
2016-06-16T00:09:26.831Z,0
2016-06-16T00:10:27.365Z,0
2016-06-16T00:11:26.852Z,0
2016-06-16T00:12:26.840Z,0
2016-06-16T00:13:26.844Z,0
2016-06-16T00:14:26.877Z,0
2016-06-16T00:15:26.864Z,0
2016-06-16T00:16:26.884Z,0
2016-06-16T00:17:26.871Z,0
2016-06-16T00:18:26.889Z,0
2016-06-16T00:19:26.893Z,0
2016-06-16T00:20:26.912Z,0
2016-06-16T00:21:26.915Z,0
2016-06-16T00:22:26.902Z,0
2016-06-16T00:23:26.921Z,0
2016-06-16T00:24:26.908Z,0
2016-06-16T00:25:27.458Z,0
2016-06-16T00:26:26.945Z,0
2016-06-16T00:27:26.948Z,0
2016-06-16T00:28:26.951Z,0
2016-06-16T00:29:26.954Z,0
2016-06-16T00:30:27.333Z,0
2016-06-16T00:31:26.977Z,0
2016-06-16T00:32:26.980Z,0
2016-06-16T00:33:26.982Z,0
2016-06-16T00:34:26.986Z,0
2016-06-16T00:35:27.004Z,0
2016-06-16T00:36:26.992Z,0
2016-06-16T00:37:27.010Z,0
2016-06-16T00:38:26.857Z,0
2016-06-16T00:39:27.016Z,0
2016-06-16T00:40:27.519Z,0
2016-06-16T00:41:27.039Z,0
2016-06-16T00:42:27.041Z,0
2016-06-16T00:43:27.044Z,0
2016-06-16T00:44:27.064Z,0
2016-06-16T00:45:27.067Z,0
2016-06-16T00:46:27.069Z,0
2016-06-16T00:47:27.073Z,0
2016-06-16T00:48:27.076Z,0
2016-06-16T00:49:27.094Z,0
2016-06-16T00:50:27.113Z,0
2016-06-16T00:51:27.100Z,0
2016-06-16T00:52:27.119Z,0
2016-06-16T00:53:27.122Z,0
2016-06-16T00:54:27.125Z,0
2016-06-16T00:55:26.988Z,0
2016-06-16T00:56:27.381Z,0
2016-06-16T00:57:27.135Z,0
2016-06-16T00:58:27.154Z,0
2016-06-16T00:59:27.157Z,0
2016-06-16T01:00:27.159Z,0
2016-06-16T01:01:27.178Z,0
2016-06-16T01:02:27.181Z,0
2016-06-16T01:03:27.247Z,0
2016-06-16T01:04:27.187Z,0
2016-06-16T01:05:27.190Z,0
2016-06-16T01:06:27.193Z,0
2016-06-16T01:07:27.212Z,0
2016-06-16T01:08:27.200Z,0
2016-06-16T01:09:27.233Z,0
2016-06-16T01:10:27.394Z,0
2016-06-16T01:11:27.084Z,0
2016-06-16T01:12:27.181Z,0
2016-06-16T01:13:27.089Z,0
2016-06-16T01:14:27.093Z,0
2016-06-16T01:15:27.127Z,0
2016-06-16T01:16:27.271Z,0
2016-06-16T01:17:27.274Z,0
2016-06-16T01:18:27.277Z,0
2016-06-16T01:19:27.280Z,0
2016-06-16T01:20:27.284Z,0
2016-06-16T01:21:27.302Z,0
2016-06-16T01:22:27.289Z,0
2016-06-16T01:23:27.308Z,0
2016-06-16T01:24:27.311Z,0
2016-06-16T01:25:27.502Z,0
2016-06-16T01:26:27.349Z,0
2016-06-16T01:27:27.336Z,0
2016-06-16T01:28:27.323Z,0
2016-06-16T01:29:27.342Z,0
2016-06-16T01:30:27.345Z,0
2016-06-16T01:31:27.364Z,0
2016-06-16T01:32:27.383Z,0
2016-06-16T01:33:27.370Z,0
2016-06-16T01:34:27.389Z,0
2016-06-16T01:35:27.392Z,0
2016-06-16T01:36:27.379Z,0
2016-06-16T01:37:27.413Z,0
2016-06-16T01:38:27.433Z,0
2016-06-16T01:39:27.435Z,0
2016-06-16T01:40:27.266Z,0
2016-06-16T01:41:27.801Z,0
2016-06-16T01:42:27.429Z,0
2016-06-16T01:43:27.635Z,0
2016-06-16T01:44:27.451Z,0
2016-06-16T01:45:27.454Z,0
2016-06-16T01:46:27.457Z,0
2016-06-16T01:47:27.460Z,0
2016-06-16T01:48:27.478Z,0
2016-06-16T01:49:27.482Z,0
2016-06-16T01:50:27.469Z,0
2016-06-16T01:51:27.472Z,0
2016-06-16T01:52:27.491Z,0
2016-06-16T01:53:27.494Z,0
2016-06-16T01:54:27.528Z,0
2016-06-16T01:55:27.515Z,0
2016-06-16T01:56:27.910Z,0
2016-06-16T01:57:27.522Z,0
2016-06-16T01:58:27.572Z,0
2016-06-16T01:59:27.544Z,0
2016-06-16T02:00:27.390Z,0
2016-06-16T02:01:27.550Z,0
2016-06-16T02:02:27.569Z,0
2016-06-16T02:03:27.696Z,0
2016-06-16T02:04:27.419Z,0
2016-06-16T02:05:27.593Z,0
2016-06-16T02:06:27.597Z,0
2016-06-16T02:07:27.599Z,0
2016-06-16T02:08:27.603Z,0
2016-06-16T02:09:27.606Z,0
2016-06-16T02:10:27.625Z,0
2016-06-16T02:11:27.674Z,0
2016-06-16T02:12:27.631Z,0
2016-06-16T02:13:27.649Z,0
2016-06-16T02:14:27.324Z,0
2016-06-16T02:15:27.640Z,0
2016-06-16T02:16:27.659Z,0
2016-06-16T02:17:27.677Z,0
2016-06-16T02:18:27.664Z,0
2016-06-16T02:19:27.668Z,0
2016-06-16T02:20:27.671Z,0
2016-06-16T02:21:27.704Z,0
2016-06-16T02:22:27.677Z,0
2016-06-16T02:23:27.696Z,0
2016-06-16T02:24:27.699Z,0
2016-06-16T02:25:27.717Z,0
2016-06-16T02:26:27.549Z,0
2016-06-16T02:27:27.739Z,0
2016-06-16T02:28:27.727Z,0
2016-06-16T02:29:27.745Z,0
2016-06-16T02:30:27.732Z,0
2016-06-16T02:31:27.735Z,0
2016-06-16T02:32:27.771Z,0
2016-06-16T02:33:27.757Z,0
2016-06-16T02:34:27.777Z,0
2016-06-16T02:35:27.780Z,0
2016-06-16T02:36:27.783Z,0
2016-06-16T02:37:27.801Z,0
2016-06-16T02:38:27.789Z,0
2016-06-16T02:39:27.792Z,0
2016-06-16T02:40:27.810Z,4
2016-06-16T02:41:28.751Z,4
2016-06-16T02:42:27.660Z,4
2016-06-16T02:43:27.851Z,0
2016-06-16T02:44:27.823Z,0
2016-06-16T02:45:27.842Z,0
2016-06-16T02:46:27.844Z,4
2016-06-16T02:47:27.847Z,4
2016-06-16T02:48:27.867Z,4
2016-06-16T02:49:27.870Z,4
2016-06-16T02:50:27.872Z,4
2016-06-16T02:51:27.876Z,4
2016-06-16T02:52:27.754Z,4
2016-06-16T02:53:27.897Z,4
2016-06-16T02:54:27.900Z,4
2016-06-16T02:55:27.920Z,8
2016-06-16T02:56:27.953Z,4
2016-06-16T02:57:27.925Z,4
2016-06-16T02:58:27.944Z,8
2016-06-16T02:59:27.916Z,4
2016-06-16T03:00:27.935Z,8
2016-06-16T03:01:27.953Z,8
2016-06-16T03:02:27.941Z,12
2016-06-16T03:03:28.116Z,8
2016-06-16T03:04:27.978Z,12
2016-06-16T03:05:27.965Z,12
2016-06-16T03:06:27.968Z,12
2016-06-16T03:07:27.988Z,16
2016-06-16T03:08:28.006Z,12
2016-06-16T03:09:27.993Z,16
2016-06-16T03:10:27.996Z,16
2016-06-16T03:11:27.906Z,16
2016-06-16T03:12:28.019Z,16
2016-06-16T03:13:28.036Z,20
2016-06-16T03:14:28.024Z,20
2016-06-16T03:15:28.043Z,24
2016-06-16T03:16:28.046Z,24
2016-06-16T03:17:28.065Z,24
2016-06-16T03:18:28.052Z,28
2016-06-16T03:19:28.055Z,28
2016-06-16T03:20:28.074Z,28
2016-06-16T03:21:28.374Z,28
2016-06-16T03:22:28.080Z,32
2016-06-16T03:23:28.083Z,32
2016-06-16T03:24:28.087Z,36
2016-06-16T03:25:27.792Z,32
2016-06-16T03:26:27.951Z,36
2016-06-16T03:27:28.112Z,40
2016-06-16T03:28:27.958Z,40
2016-06-16T03:29:28.132Z,44
2016-06-16T03:30:28.121Z,44
2016-06-16T03:31:28.170Z,44
2016-06-16T03:32:28.142Z,44
2016-06-16T03:33:28.145Z,48
2016-06-16T03:34:28.148Z,52
2016-06-16T03:35:28.167Z,56
2016-06-16T03:36:28.171Z,60
2016-06-16T03:37:28.173Z,68
2016-06-16T03:38:28.457Z,76
2016-06-16T03:39:28.210Z,84
2016-06-16T03:40:28.197Z,100
2016-06-16T03:41:27.905Z,108
2016-06-16T03:42:28.219Z,128
2016-06-16T03:43:28.206Z,132
2016-06-16T03:44:28.210Z,180
2016-06-16T03:45:28.212Z,328
2016-06-16T03:46:28.216Z,456
2016-06-16T03:47:28.079Z,344
2016-06-16T03:48:28.269Z,260
2016-06-16T03:49:28.100Z,264
2016-06-16T03:50:28.261Z,200
2016-06-16T03:51:28.263Z,168
2016-06-16T03:52:28.281Z,160
2016-06-16T03:53:28.284Z,124
2016-06-16T03:54:28.335Z,108
2016-06-16T03:55:28.290Z,104
2016-06-16T03:56:28.326Z,76
2016-06-16T03:57:28.313Z,68
2016-06-16T03:58:28.316Z,68
2016-06-16T03:59:28.163Z,68
2016-06-16T04:00:28.338Z,72
2016-06-16T04:01:28.356Z,80
2016-06-16T04:02:28.344Z,88
2016-06-16T04:03:28.410Z,92
2016-06-16T04:04:28.365Z,100
2016-06-16T04:05:28.837Z,104
2016-06-16T04:06:28.356Z,108
2016-06-16T04:07:28.375Z,112
2016-06-16T04:08:28.377Z,116
2016-06-16T04:09:28.380Z,120
2016-06-16T04:10:28.384Z,132
2016-06-16T04:11:28.481Z,144
2016-06-16T04:12:28.343Z,160
2016-06-16T04:13:28.392Z,176
2016-06-16T04:14:28.412Z,184
2016-06-16T04:15:28.446Z,200
2016-06-16T04:16:28.452Z,244
2016-06-16T04:17:28.511Z,296
2016-06-16T04:18:28.537Z,364
2016-06-16T04:19:28.596Z,420
2016-06-16T04:20:28.467Z,432
2016-06-16T04:21:28.687Z,436
2016-06-16T04:22:28.688Z,448
2016-06-16T04:23:28.721Z,456
2016-06-16T04:24:28.739Z,464
2016-06-16T04:25:28.756Z,480
2016-06-16T04:26:28.659Z,488
2016-06-16T04:27:28.620Z,492
2016-06-16T04:28:28.785Z,492
2016-06-16T04:29:28.793Z,508
2016-06-16T04:30:28.816Z,524
2016-06-16T04:31:28.823Z,536
2016-06-16T04:32:28.844Z,540
2016-06-16T04:33:28.849Z,560
2016-06-16T04:34:28.838Z,564
2016-06-16T04:35:28.874Z,560
2016-06-16T04:36:28.707Z,564
2016-06-16T04:37:28.867Z,568
2016-06-16T04:38:28.871Z,572
2016-06-16T04:39:28.875Z,572
2016-06-16T04:40:28.895Z,620
2016-06-16T04:41:28.913Z,600
2016-06-16T04:42:28.917Z,608
2016-06-16T04:43:30.826Z,656
2016-06-16T04:44:28.924Z,620
2016-06-16T04:45:28.927Z,628
2016-06-16T04:46:28.946Z,672
2016-06-16T04:47:28.933Z,676
2016-06-16T04:48:28.953Z,652
2016-06-16T04:49:28.970Z,648
2016-06-16T04:50:28.959Z,652
2016-06-16T04:51:28.962Z,676
2016-06-16T04:52:28.980Z,712
2016-06-16T04:53:28.999Z,740
2016-06-16T04:54:28.518Z,1580
2016-06-16T04:55:28.989Z,1832
2016-06-16T04:56:29.008Z,1544
2016-06-16T04:57:28.731Z,900
2016-06-16T04:58:29.014Z,876
2016-06-16T04:59:29.017Z,732
2016-06-16T05:00:29.036Z,728
2016-06-16T05:01:29.273Z,728
2016-06-16T05:02:29.042Z,732
2016-06-16T05:03:29.093Z,736
2016-06-16T05:04:29.064Z,740
2016-06-16T05:05:29.051Z,744
2016-06-16T05:06:29.086Z,752
2016-06-16T05:07:29.089Z,752
2016-06-16T05:08:29.076Z,756
2016-06-16T05:09:29.095Z,752
2016-06-16T05:10:29.098Z,736
2016-06-16T05:11:29.288Z,740
2016-06-16T05:12:29.449Z,740
2016-06-16T05:13:29.124Z,724
2016-06-16T05:14:29.127Z,680
2016-06-16T05:15:29.114Z,656
2016-06-16T05:16:29.132Z,644
2016-06-16T05:17:29.136Z,576
2016-06-16T05:18:29.139Z,512
2016-06-16T05:19:29.579Z,484
2016-06-16T05:20:29.176Z,520
2016-06-16T05:21:29.601Z,560
2016-06-16T05:22:29.166Z,612
2016-06-16T05:23:29.185Z,708
2016-06-16T05:24:29.188Z,724
2016-06-16T05:25:29.191Z,720
2016-06-16T05:26:29.054Z,724
2016-06-16T05:27:29.526Z,748
2016-06-16T05:28:29.310Z,764
2016-06-16T05:29:29.218Z,800
2016-06-16T05:30:28.737Z,824
2016-06-16T05:31:29.210Z,852
2016-06-16T05:32:29.603Z,860
2016-06-16T05:33:29.935Z,836
2016-06-16T05:34:29.234Z,832
2016-06-16T05:35:29.253Z,772
2016-06-16T05:36:29.272Z,752
2016-06-16T05:37:29.306Z,724
2016-06-16T05:38:29.278Z,736
2016-06-16T05:39:29.265Z,768
2016-06-16T05:40:32.534Z,844
2016-06-16T05:41:29.771Z,872
2016-06-16T05:42:29.556Z,880
2016-06-16T05:43:29.309Z,820
2016-06-16T05:44:29.515Z,720
2016-06-16T05:45:29.565Z,652
2016-06-16T05:46:29.568Z,556
2016-06-16T05:47:29.570Z,464
2016-06-16T05:48:29.559Z,416
2016-06-16T05:49:29.577Z,372
2016-06-16T05:50:29.580Z,332
2016-06-16T05:51:30.052Z,292
2016-06-16T05:52:29.368Z,260
2016-06-16T05:53:29.371Z,256
2016-06-16T05:54:30.000Z,248
2016-06-16T05:55:29.424Z,236
2016-06-16T05:56:29.396Z,228
2016-06-16T05:57:29.274Z,232
2016-06-16T05:58:29.418Z,236
2016-06-16T05:59:29.451Z,232
2016-06-16T06:00:29.423Z,240
2016-06-16T06:01:29.427Z,264
2016-06-16T06:02:29.445Z,292
2016-06-16T06:03:29.433Z,340
2016-06-16T06:04:29.451Z,380
2016-06-16T06:05:29.501Z,400
2016-06-16T06:06:29.504Z,436
2016-06-16T06:07:29.461Z,448
2016-06-16T06:08:29.496Z,480
2016-06-16T06:09:29.311Z,476
2016-06-16T06:10:29.470Z,464
2016-06-16T06:11:29.817Z,412
2016-06-16T06:12:29.835Z,392
2016-06-16T06:13:29.510Z,396
2016-06-16T06:14:29.514Z,428
2016-06-16T06:15:29.517Z,556
2016-06-16T06:16:29.363Z,652
2016-06-16T06:17:29.523Z,724
2016-06-16T06:18:29.526Z,740
2016-06-16T06:19:29.405Z,732
2016-06-16T06:20:29.563Z,644
2016-06-16T06:21:29.161Z,616
2016-06-16T06:22:29.569Z,636
2016-06-16T06:23:29.573Z,688
2016-06-16T06:24:29.575Z,696
2016-06-16T06:25:29.579Z,680
2016-06-16T06:26:30.269Z,684
2016-06-16T06:27:29.632Z,668
2016-06-16T06:28:29.604Z,632
2016-06-16T06:29:29.607Z,596
2016-06-16T06:30:29.625Z,604
2016-06-16T06:31:29.613Z,616
2016-06-16T06:32:29.631Z,612
2016-06-16T06:33:29.634Z,588
2016-06-16T06:34:29.654Z,576
2016-06-16T06:35:29.657Z,544
2016-06-16T06:36:29.644Z,572
2016-06-16T06:37:29.662Z,536
2016-06-16T06:38:29.665Z,552
2016-06-16T06:39:29.669Z,560
2016-06-16T06:40:29.687Z,588
2016-06-16T06:41:29.690Z,604
2016-06-16T06:42:30.303Z,628
2016-06-16T06:43:29.696Z,596
2016-06-16T06:44:29.715Z,628
2016-06-16T06:45:29.718Z,676
2016-06-16T06:46:29.721Z,696
2016-06-16T06:47:29.740Z,700
2016-06-16T06:48:29.728Z,688
2016-06-16T06:49:29.747Z,660
2016-06-16T06:50:29.750Z,640
2016-06-16T06:51:29.439Z,600
2016-06-16T06:52:29.646Z,596
2016-06-16T06:53:29.758Z,604
2016-06-16T06:54:29.793Z,596
2016-06-16T06:55:29.796Z,576
2016-06-16T06:56:29.783Z,568
2016-06-16T06:57:30.536Z,560
2016-06-16T06:58:30.789Z,572
2016-06-16T06:59:31.011Z,584
2016-06-16T07:00:31.467Z,580
2016-06-16T07:01:31.720Z,588
2016-06-16T07:02:34.302Z,584
2016-06-16T07:03:31.946Z,580
2016-06-16T07:04:32.026Z,580
2016-06-16T07:05:32.310Z,576
2016-06-16T07:06:31.830Z,576
2016-06-16T07:07:31.458Z,576
2016-06-16T07:08:31.133Z,576
2016-06-16T07:09:31.589Z,560
2016-06-16T07:10:34.998Z,560
2016-06-16T07:11:32.048Z,560
2016-06-16T07:12:31.020Z,556
2016-06-16T07:13:29.945Z,552
2016-06-16T07:14:31.291Z,560
2016-06-16T07:15:33.795Z,568
2016-06-16T07:16:34.314Z,572
2016-06-16T07:17:30.676Z,592
2016-06-16T07:18:31.475Z,616
2016-06-16T07:19:31.479Z,636
2016-06-16T07:20:32.029Z,648
2016-06-16T07:21:30.470Z,708
2016-06-16T07:22:29.645Z,756
2016-06-16T07:23:31.085Z,820
2016-06-16T07:24:31.417Z,848
2016-06-16T07:25:32.044Z,880
2016-06-16T07:26:31.953Z,892
2016-06-16T07:27:31.675Z,928
2016-06-16T07:29:01.350Z,984
2016-06-16T07:29:30.776Z,1000
2016-06-16T07:30:31.028Z,1056
2016-06-16T07:31:29.890Z,1112
2016-06-16T07:32:42.909Z,1132
2016-06-16T07:33:29.913Z,1152
2016-06-16T07:34:30.073Z,1172
2016-06-16T07:48:37.536Z,1144
2016-06-16T07:48:43.958Z,536
2016-06-16T07:48:56.318Z,496
2016-06-16T07:49:56.336Z,412
2016-06-16T07:50:56.589Z,616
2016-06-16T07:51:56.342Z,880
2016-06-16T07:52:56.486Z,1032
2016-06-16T07:53:56.489Z,1044
2016-06-16T07:54:56.352Z,572
2016-06-16T07:55:56.355Z,424
2016-06-16T07:56:56.530Z,436
2016-06-16T07:57:56.532Z,492
2016-06-16T07:58:56.535Z,724
2016-06-16T07:59:56.555Z,888
2016-06-16T08:00:56.386Z,560
2016-06-16T08:01:56.545Z,416
2016-06-16T08:02:56.423Z,964
2016-06-16T08:03:56.614Z,1020
2016-06-16T08:04:56.570Z,992
2016-06-16T08:05:56.432Z,924
2016-06-16T08:06:56.592Z,724
2016-06-16T08:07:56.595Z,676
2016-06-16T08:08:56.614Z,864
2016-06-16T08:09:56.695Z,768
2016-06-16T08:10:56.604Z,880
2016-06-16T08:11:56.622Z,908
2016-06-16T08:12:56.470Z,980
2016-06-16T08:13:56.629Z,968
2016-06-16T08:14:56.631Z,988
2016-06-16T08:15:56.651Z,924
2016-06-16T08:16:56.497Z,956
2016-06-16T08:17:56.657Z,900
2016-06-16T08:18:56.864Z,936
2016-06-16T08:19:56.522Z,904
2016-06-16T08:20:56.713Z,896
2016-06-16T08:21:56.545Z,880
2016-06-16T08:22:56.703Z,908
2016-06-16T08:23:56.707Z,856
2016-06-16T08:24:56.709Z,892
2016-06-16T08:25:56.696Z,812
2016-06-16T08:26:56.746Z,884
2016-06-16T08:27:56.735Z,888
2016-06-16T08:28:56.738Z,908
2016-06-16T08:29:56.741Z,860
2016-06-16T08:30:56.744Z,880
2016-06-16T08:31:56.840Z,836
2016-06-16T08:32:56.765Z,840
2016-06-16T08:33:56.799Z,792
2016-06-16T08:34:56.819Z,856
2016-06-16T08:35:56.791Z,860
2016-06-16T08:36:56.638Z,844
2016-06-16T08:37:56.796Z,820
2016-06-16T08:38:56.800Z,548
2016-06-16T08:39:56.803Z,540
2016-06-16T08:40:56.837Z,404
2016-06-16T08:41:56.840Z,364
2016-06-16T08:42:56.844Z,480
2016-06-16T08:43:56.847Z,524
2016-06-16T08:44:56.866Z,436
2016-06-16T08:45:56.884Z,284
2016-06-16T08:46:56.715Z,344
2016-06-16T08:47:56.889Z,344
2016-06-16T08:48:19.643Z,460
2016-06-16T08:48:32.315Z,460
2016-06-16T08:49:32.318Z,464
2016-06-16T08:50:32.353Z,440
2016-06-16T08:51:32.309Z,416
2016-06-16T08:52:32.327Z,400
2016-06-16T08:53:32.347Z,404
2016-06-16T08:54:32.350Z,404
2016-06-16T08:55:32.353Z,384
2016-06-16T08:56:32.355Z,360
2016-06-16T08:57:32.046Z,360
2016-06-16T08:58:32.345Z,368
2016-06-16T08:59:32.427Z,380
2016-06-16T09:00:32.383Z,380
2016-06-16T09:01:32.386Z,368
2016-06-16T09:02:32.389Z,364
2016-06-16T09:03:32.377Z,348
2016-06-16T09:04:32.395Z,332
2016-06-16T09:05:32.259Z,332
2016-06-16T09:06:32.276Z,332
2016-06-16T09:07:32.467Z,336
2016-06-16T09:08:32.282Z,380
2016-06-16T09:09:32.583Z,460
2016-06-16T09:10:32.461Z,408
2016-06-16T09:11:32.292Z,428
2016-06-16T09:12:32.451Z,540
2016-06-16T09:13:32.298Z,500
2016-06-16T09:14:32.348Z,516
2016-06-16T09:15:32.320Z,488
2016-06-16T09:16:32.495Z,476
2016-06-16T09:17:32.498Z,468
2016-06-16T09:18:32.517Z,484
2016-06-16T09:19:32.364Z,476
2016-06-16T09:20:32.507Z,468
2016-06-16T09:21:32.511Z,472
2016-06-16T09:22:32.513Z,488
2016-06-16T09:23:32.563Z,508
2016-06-16T09:24:32.567Z,516
2016-06-16T09:25:32.460Z,516
2016-06-16T09:26:32.542Z,516
2016-06-16T09:27:32.545Z,504
2016-06-16T09:28:32.407Z,456
2016-06-16T09:29:32.410Z,436
2016-06-16T09:30:32.444Z,444
2016-06-16T09:31:32.588Z,440
2016-06-16T09:32:32.466Z,408
2016-06-16T09:33:32.610Z,388
2016-06-16T09:34:32.503Z,364
2016-06-16T09:35:32.976Z,360
2016-06-16T09:36:32.619Z,356
2016-06-16T09:37:32.622Z,352
2016-06-16T09:38:32.640Z,356
2016-06-16T09:39:33.050Z,352
2016-06-16T09:40:32.647Z,356
2016-06-16T09:41:32.713Z,352
2016-06-16T09:42:32.528Z,356
2016-06-16T09:43:32.703Z,376
2016-06-16T09:44:32.690Z,400
2016-06-16T09:45:33.318Z,436
2016-06-16T09:46:32.525Z,436
2016-06-16T09:47:32.699Z,428
2016-06-16T09:48:32.718Z,416
2016-06-16T09:49:33.144Z,412
2016-06-16T09:50:33.052Z,428
2016-06-16T09:51:32.994Z,424
2016-06-16T09:52:32.747Z,440
2016-06-16T09:53:32.796Z,452
2016-06-16T09:54:32.736Z,452
2016-06-16T09:55:32.849Z,448
2016-06-16T09:56:32.790Z,460
2016-06-16T09:57:32.762Z,480
2016-06-16T09:58:32.780Z,528
2016-06-16T09:59:33.189Z,548
2016-06-16T10:00:32.880Z,552
2016-06-16T10:01:32.789Z,556
2016-06-16T10:02:32.840Z,552
2016-06-16T10:03:33.171Z,556
2016-06-16T10:04:33.143Z,556
2016-06-16T10:05:32.677Z,532
2016-06-16T10:06:33.024Z,540
2016-06-16T10:07:33.745Z,532
2016-06-16T10:08:33.374Z,532
2016-06-16T10:09:33.095Z,500
2016-06-16T10:10:32.848Z,492
2016-06-16T10:11:32.711Z,500
2016-06-16T10:12:33.167Z,496
2016-06-16T10:13:32.951Z,504
2016-06-16T10:14:32.877Z,500
2016-06-16T10:15:32.927Z,480
2016-06-16T10:16:32.757Z,508
2016-06-16T10:17:32.792Z,496
2016-06-16T10:18:32.904Z,484
2016-06-16T10:19:33.205Z,420
2016-06-16T10:20:33.411Z,328
2016-06-16T10:21:32.789Z,316
2016-06-16T10:22:33.057Z,300
2016-06-16T10:23:32.967Z,300
2016-06-16T10:24:32.954Z,304
2016-06-16T10:25:32.816Z,304
2016-06-16T10:26:32.991Z,316
2016-06-16T10:27:32.823Z,380
2016-06-16T10:28:32.982Z,428
2016-06-16T10:29:32.829Z,472
2016-06-16T10:30:32.989Z,476
2016-06-16T10:31:33.038Z,488
2016-06-16T10:32:33.026Z,504
2016-06-16T10:33:33.013Z,540
2016-06-16T10:34:32.875Z,504
2016-06-16T10:35:32.863Z,480
2016-06-16T10:36:33.100Z,468
2016-06-16T10:37:33.041Z,484
2016-06-16T10:38:33.044Z,484
2016-06-16T10:39:33.078Z,484
2016-06-16T10:40:32.926Z,492
2016-06-16T10:41:33.084Z,492
2016-06-16T10:42:33.087Z,496
2016-06-16T10:43:33.090Z,492
2016-06-16T10:44:33.094Z,484
2016-06-16T10:45:32.956Z,452
2016-06-16T10:46:33.116Z,452
2016-06-16T10:47:33.119Z,468
2016-06-16T10:48:33.122Z,472
2016-06-16T10:49:33.218Z,480
2016-06-16T10:50:33.128Z,492
2016-06-16T10:51:33.146Z,484
2016-06-16T10:52:33.149Z,496
2016-06-16T10:53:33.168Z,488
2016-06-16T10:54:33.172Z,476
2016-06-16T10:55:33.033Z,436
2016-06-16T10:56:33.194Z,356
2016-06-16T10:57:33.197Z,436
2016-06-16T10:58:33.184Z,440
2016-06-16T10:59:33.186Z,444
2016-06-16T11:00:33.221Z,348
2016-06-16T11:01:33.224Z,324
2016-06-16T11:02:33.243Z,344
2016-06-16T11:03:33.231Z,416
2016-06-16T11:04:34.608Z,344
2016-06-16T11:07:48.508Z,360
2016-06-16T11:09:39.015Z,344
2016-06-16T11:09:51.655Z,340
2016-06-16T11:10:51.689Z,320
2016-06-16T11:11:51.677Z,312
2016-06-16T11:13:42.183Z,336
2016-06-16T11:13:54.871Z,336
2016-06-16T11:14:54.858Z,360
2016-06-16T11:15:54.674Z,436
2016-06-16T11:16:54.849Z,448
2016-06-16T11:17:54.836Z,416
2016-06-16T11:18:54.698Z,424
2016-06-16T11:19:54.904Z,424
2016-06-16T11:20:55.268Z,456
2016-06-16T11:21:55.036Z,472
2016-06-16T11:22:54.883Z,488
2016-06-16T11:23:54.964Z,476
2016-06-16T11:24:54.889Z,460
2016-06-16T11:25:54.908Z,452
2016-06-16T11:26:54.910Z,444
2016-06-16T11:27:55.195Z,444
2016-06-16T11:28:54.917Z,484
2016-06-16T11:29:54.951Z,496
2016-06-16T11:30:55.032Z,496
2016-06-16T11:31:54.785Z,472
2016-06-16T11:32:54.976Z,504
2016-06-16T11:33:54.964Z,444
2016-06-16T11:34:54.950Z,400
2016-06-16T11:35:54.986Z,428
2016-06-16T11:36:55.004Z,452
2016-06-16T11:37:54.975Z,536
2016-06-16T11:38:54.994Z,536
2016-06-16T11:39:55.248Z,516
2016-06-16T11:40:54.860Z,576
2016-06-16T11:41:55.035Z,604
2016-06-16T11:42:55.053Z,612
2016-06-16T11:43:55.385Z,600
2016-06-16T11:44:55.044Z,572
2016-06-16T11:45:55.047Z,436
2016-06-16T11:46:55.129Z,420
2016-06-16T11:47:55.053Z,404
2016-06-16T11:48:54.900Z,368
2016-06-16T11:49:55.106Z,356
2016-06-16T11:50:54.921Z,348
2016-06-16T11:51:55.081Z,336
2016-06-16T11:52:54.647Z,328
2016-06-16T11:53:55.103Z,328
2016-06-16T11:54:54.950Z,324
2016-06-16T11:55:55.140Z,336
2016-06-16T11:56:55.128Z,348
2016-06-16T11:57:55.131Z,356
2016-06-16T11:58:55.135Z,356
2016-06-16T11:59:55.138Z,352
2016-06-16T12:00:55.140Z,348
2016-06-16T12:01:55.159Z,352
2016-06-16T12:02:55.162Z,356
2016-06-16T12:03:55.180Z,364
2016-06-16T12:04:55.168Z,372
2016-06-16T12:05:55.187Z,372
2016-06-16T12:06:55.362Z,376
2016-06-16T12:07:55.177Z,380
2016-06-16T12:08:55.212Z,384
2016-06-16T12:09:56.183Z,396
2016-06-16T12:10:56.218Z,412
2016-06-16T12:11:55.236Z,496
2016-06-16T12:12:55.067Z,500
2016-06-16T12:13:56.086Z,488
2016-06-16T12:14:56.090Z,460
2016-06-16T12:15:54.734Z,412
2016-06-16T12:16:56.282Z,476
2016-06-16T12:17:55.255Z,472
2016-06-16T12:18:55.118Z,492
2016-06-16T12:19:55.292Z,492
2016-06-16T12:20:55.295Z,492
2016-06-16T12:21:55.486Z,500
2016-06-16T12:22:55.301Z,496
2016-06-16T12:23:55.336Z,496
2016-06-16T12:24:55.574Z,488
2016-06-16T12:25:55.342Z,492
2016-06-16T12:26:55.532Z,496
2016-06-16T12:27:55.629Z,496
2016-06-16T12:28:55.211Z,496
2016-06-16T12:29:55.355Z,488
2016-06-16T12:30:55.358Z,492
2016-06-16T12:31:55.579Z,364
2016-06-16T12:32:55.504Z,304
2016-06-16T12:33:56.335Z,296
2016-06-16T12:34:55.276Z,292
2016-06-16T12:35:55.420Z,300
2016-06-16T12:36:55.688Z,288
2016-06-16T12:37:55.427Z,288
2016-06-16T12:38:55.430Z,288
2016-06-16T12:39:55.978Z,288
2016-06-16T12:40:55.420Z,288
2016-06-16T12:41:55.266Z,276
2016-06-16T12:42:55.144Z,276
2016-06-16T12:43:55.460Z,280
2016-06-16T12:44:55.462Z,296
2016-06-16T12:45:54.982Z,432
2016-06-16T12:46:55.688Z,464
2016-06-16T12:47:56.847Z,332
2016-06-16T12:48:55.475Z,428
2016-06-16T12:49:55.822Z,356
2016-06-16T12:50:55.731Z,440
2016-06-16T12:51:55.548Z,500
2016-06-16T12:52:55.519Z,416
2016-06-16T12:59:02.569Z,308
2016-06-16T13:00:02.509Z,304
2016-06-16T13:01:02.606Z,308
2016-06-16T13:02:02.829Z,308
2016-06-16T13:03:02.488Z,300
2016-06-16T13:04:02.475Z,300
2016-06-16T13:05:02.338Z,300
2016-06-16T13:06:02.199Z,300
2016-06-16T13:07:02.797Z,300
2016-06-16T13:08:02.378Z,300
2016-06-16T13:09:02.506Z,300
2016-06-16T13:10:02.540Z,312
2016-06-16T13:11:02.528Z,316
2016-06-16T13:12:02.578Z,324
2016-06-16T13:13:02.534Z,332
2016-06-16T13:14:02.553Z,332
2016-06-16T13:15:02.400Z,332
2016-06-16T13:16:02.543Z,336
2016-06-16T13:17:02.578Z,344
2016-06-16T13:18:02.424Z,352
2016-06-16T13:19:02.584Z,344
2016-06-16T13:20:02.587Z,336
2016-06-16T13:21:02.605Z,332
2016-06-16T13:22:02.593Z,324
2016-06-16T13:23:02.611Z,316
2016-06-16T13:24:02.631Z,308
2016-06-16T13:25:02.633Z,300
2016-06-16T13:26:02.496Z,292
2016-06-16T13:27:02.623Z,288
2016-06-16T13:28:02.643Z,284
2016-06-16T13:29:02.677Z,284
2016-06-16T13:30:02.665Z,276
2016-06-16T13:31:02.354Z,272
2016-06-16T13:32:02.686Z,264
2016-06-16T13:33:02.689Z,264
2016-06-16T13:34:02.677Z,268
2016-06-16T13:35:02.367Z,264
2016-06-16T13:36:02.683Z,264
2016-06-16T13:37:02.701Z,264
2016-06-16T13:38:02.720Z,264
2016-06-16T13:39:02.754Z,264
2016-06-16T13:40:02.711Z,268
2016-06-16T13:41:02.730Z,260
2016-06-16T13:42:02.592Z,260
2016-06-16T13:43:02.751Z,256
2016-06-16T13:44:02.754Z,252
2016-06-16T13:45:02.757Z,256
2016-06-16T13:46:02.760Z,248
2016-06-16T13:47:02.639Z,248
2016-06-16T13:48:02.626Z,240
2016-06-16T13:49:02.785Z,240
2016-06-16T13:50:02.788Z,236
2016-06-16T13:51:02.854Z,240
2016-06-16T13:52:02.811Z,240
2016-06-16T13:53:02.814Z,244
2016-06-16T13:58:46.404Z,244
2016-06-16T13:59:46.408Z,252
2016-06-16T14:00:46.410Z,256
2016-06-16T14:01:46.429Z,256
2016-06-16T14:02:46.276Z,260
2016-06-16T14:03:46.279Z,268
2016-06-16T14:04:46.501Z,280
2016-06-16T14:05:46.457Z,296
2016-06-16T14:06:46.305Z,304
2016-06-16T14:07:46.463Z,304
2016-06-16T14:08:46.483Z,308
2016-06-16T14:09:46.329Z,304
2016-06-16T14:10:46.489Z,300
2016-06-16T14:11:46.506Z,300
2016-06-16T14:12:46.495Z,304
2016-06-16T14:13:46.513Z,312
2016-06-16T14:14:46.515Z,316
2016-06-16T14:15:46.519Z,320
2016-06-16T14:16:46.539Z,328
2016-06-16T14:17:46.370Z,332
2016-06-16T14:18:46.560Z,344
2016-06-16T14:19:46.564Z,348
2016-06-16T14:20:46.568Z,352
2016-06-16T14:21:46.555Z,360